Terminal Aerodrome Forecast
Issued by NWS

Home | Current Version | Previous Version | Text Only | Print | Product List | Glossary On
Versions: 1 2 3 4 5 6 7 8 9 10 11 12 13 14
000
FTUS43 KILX 060520
TAFBMI
TAF
KBMI 060520Z 0606/0706 17009KT 6SM BR SKC
     FM061400 19011KT P6SM SCT030
     FM061900 19014G22KT P6SM SCT040
     FM070200 20012KT P6SM VCTS SCT040CB BKN250=

USA.gov is the U.S. government's official web portal to all federal, state and local government web resources and services.